Time;durP1;ratioP1;P1;durP2;ratioP2;P2;SDS_P1;SDS_P2;PMS_P1;PMS_P2;Temp;Humidity;BMP_temperature;BMP_pressure;BME280_temperature;BME280_humidity;BME280_pressure;Samples;Min_cycle;Max_cycle;Signal;HPM_P1;HPM_P2
2023/03/04 00:00:00;;;;;;;34.70;15.53;;;0.50;99.90;;;;;;4760538;30;20237;-77
2023/03/04 00:02:27;;;;;;;32.17;14.50;;;0.40;99.90;;;;;;4769475;30;20666;-77
2023/03/04 00:04:54;;;;;;;31.43;15.23;;;0.50;99.90;;;;;;4768975;30;20304;-75
2023/03/04 00:07:21;;;;;;;35.40;15.23;;;0.50;99.90;;;;;;4769251;30;20247;-75
2023/03/04 00:09:48;;;;;;;35.10;15.63;;;0.50;99.90;;;;;;4768065;30;20216;-75
2023/03/04 00:12:15;;;;;;;38.43;16.27;;;0.50;99.90;;;;;;4766755;30;20216;-73
2023/03/04 00:14:45;;;;;;;35.57;15.67;;;0.50;99.90;;;;;;4765574;30;20239;-77
2023/03/04 00:17:12;;;;;;;37.43;16.33;;;0.50;99.90;;;;;;4748167;30;20226;-77
2023/03/04 00:19:40;;;;;;;39.27;16.87;;;0.50;99.90;;;;;;4749668;30;20661;-76
2023/03/04 00:22:06;;;;;;;39.63;17.10;;;0.50;99.90;;;;;;4749661;30;20209;-75
2023/03/04 00:24:34;;;;;;;36.13;16.33;;;0.50;99.90;;;;;;4761320;30;20224;-74
2023/03/04 00:27:00;;;;;;;36.17;14.90;;;0.50;99.90;;;;;;4764358;30;20533;-76
2023/03/04 00:29:27;;;;;;;35.87;15.43;;;0.50;99.90;;;;;;4767390;30;20205;-75
2023/03/04 00:31:54;;;;;;;36.30;15.97;;;0.50;99.90;;;;;;4766637;30;20231;-75
2023/03/04 00:34:21;;;;;;;37.23;15.47;;;0.50;99.90;;;;;;4767138;30;20294;-75
2023/03/04 00:36:48;;;;;;;33.23;14.43;;;0.50;99.90;;;;;;4769280;30;20636;-74
2023/03/04 00:39:15;;;;;;;38.00;15.83;;;0.60;99.90;;;;;;4767905;30;20204;-74
2023/03/04 00:41:43;;;;;;;37.67;15.63;;;0.60;99.90;;;;;;4767917;30;20265;-75
2023/03/04 00:44:11;;;;;;;38.33;15.80;;;0.50;99.90;;;;;;4772122;30;20193;-74
2023/03/04 00:46:38;;;;;;;38.50;16.10;;;0.50;99.90;;;;;;4771281;30;20216;-77
2023/03/04 00:49:05;;;;;;;39.93;16.03;;;0.50;99.90;;;;;;4771196;30;20236;-76
2023/03/04 00:51:32;;;;;;;40.97;17.00;;;0.50;99.90;;;;;;4772529;30;20212;-79
2023/03/04 00:53:59;;;;;;;38.90;15.70;;;0.60;99.90;;;;;;4770199;30;20674;-77
2023/03/04 00:56:27;;;;;;;40.63;16.47;;;0.60;99.90;;;;;;4771310;30;20209;-75
2023/03/04 00:58:54;;;;;;;38.47;16.13;;;0.60;99.90;;;;;;4772358;30;20200;-78
2023/03/04 01:01:21;;;;;;;38.37;15.67;;;0.60;99.90;;;;;;4772131;30;20258;-73
2023/03/04 01:03:48;;;;;;;43.43;16.57;;;0.60;99.90;;;;;;4772310;30;20204;-77
2023/03/04 01:06:15;;;;;;;38.03;15.97;;;0.60;99.90;;;;;;4771402;30;20205;-77
2023/03/04 01:08:42;;;;;;;42.50;16.40;;;0.60;99.90;;;;;;4771031;30;20214;-73
2023/03/04 01:11:09;;;;;;;48.37;16.17;;;0.60;99.90;;;;;;4770970;30;20547;-74
2023/03/04 01:13:36;;;;;;;42.57;16.43;;;0.60;99.90;;;;;;4772209;30;20652;-75
2023/03/04 01:16:04;;;;;;;41.70;17.03;;;0.60;99.90;;;;;;4767834;30;20283;-72
2023/03/04 01:18:31;;;;;;;39.00;15.40;;;0.70;99.90;;;;;;4754258;30;20565;-72
2023/03/04 01:20:58;;;;;;;46.20;17.93;;;0.60;99.90;;;;;;4758392;30;20209;-73
2023/03/04 01:23:25;;;;;;;44.70;17.33;;;0.60;99.90;;;;;;4771701;30;20229;-75
2023/03/04 01:25:52;;;;;;;48.97;17.10;;;0.60;99.90;;;;;;4770523;30;20208;-75
2023/03/04 01:28:19;;;;;;;54.67;18.73;;;0.60;99.90;;;;;;4772047;30;20197;-78
2023/03/04 01:30:46;;;;;;;50.17;18.40;;;0.60;99.90;;;;;;4771785;30;20327;-74
2023/03/04 01:33:13;;;;;;;45.50;17.20;;;0.60;99.90;;;;;;4770540;30;20308;-75
2023/03/04 01:35:40;;;;;;;45.47;18.67;;;0.50;99.90;;;;;;4770134;30;20610;-74
2023/03/04 01:38:07;;;;;;;43.77;16.80;;;0.50;99.90;;;;;;4770345;30;20198;-74
2023/03/04 01:40:34;;;;;;;43.40;16.50;;;0.50;99.90;;;;;;4770471;30;20223;-74
2023/03/04 01:43:01;;;;;;;42.07;15.00;;;0.50;99.90;;;;;;4770493;30;20201;-77
2023/03/04 01:45:29;;;;;;;37.57;14.67;;;0.50;99.90;;;;;;4770141;30;20273;-76
2023/03/04 01:47:56;;;;;;;39.03;14.87;;;0.40;99.90;;;;;;4771488;30;20199;-75
2023/03/04 01:50:34;;;;;;;40.13;15.60;;;0.50;99.90;;;;;;4771568;30;20232;-76
2023/03/04 01:53:02;;;;;;;41.53;15.27;;;0.50;99.90;;;;;;4769751;30;20208;-76
2023/03/04 01:55:29;;;;;;;42.10;15.17;;;0.40;99.90;;;;;;4771485;30;20239;-77
2023/03/04 01:57:56;;;;;;;39.70;14.53;;;0.40;99.90;;;;;;4763634;30;20317;-75
2023/03/04 02:00:32;;;;;;;36.80;13.63;;;0.40;99.90;;;;;;4769628;30;20217;-77
2023/03/04 02:03:19;;;;;;;36.97;13.63;;;0.40;99.90;;;;;;4770130;30;20207;-76
2023/03/04 02:05:51;;;;;;;34.53;13.60;;;0.40;99.90;;;;;;4771257;30;20196;-77
2023/03/04 02:08:21;;;;;;;28.60;12.67;;;0.40;99.90;;;;;;4769942;30;20313;-76
2023/03/04 02:10:49;;;;;;;32.80;13.13;;;0.40;99.90;;;;;;4771553;30;20205;-77
2023/03/04 02:13:17;;;;;;;31.27;12.67;;;0.40;99.90;;;;;;4769866;30;20248;-76
2023/03/04 02:15:45;;;;;;;30.20;12.43;;;0.30;99.90;;;;;;4770785;30;20228;-77
2023/03/04 02:18:16;;;;;;;33.33;13.80;;;0.40;99.90;;;;;;4769882;30;20217;-77
2023/03/04 02:21:14;;;;;;;35.27;13.73;;;0.40;99.90;;;;;;4769697;30;20309;-79
2023/03/04 02:24:05;;;;;;;29.80;12.67;;;0.40;99.90;;;;;;4735917;30;20277;-78
2023/03/04 02:26:34;;;;;;;30.13;12.17;;;0.40;99.90;;;;;;4736057;30;20209;-76
2023/03/04 02:29:02;;;;;;;35.20;13.03;;;0.40;99.90;;;;;;4736517;30;20224;-77
2023/03/04 02:31:31;;;;;;;30.90;12.67;;;0.50;99.90;;;;;;4750825;30;20245;-77
2023/03/04 02:34:01;;;;;;;32.23;12.80;;;0.40;99.90;;;;;;4751570;30;20217;-76
2023/03/04 02:36:28;;;;;;;36.43;13.80;;;0.50;99.90;;;;;;4736184;30;20225;-75
2023/03/04 02:39:06;;;;;;;36.03;13.80;;;0.50;99.90;;;;;;4751027;30;20227;-74
2023/03/04 02:41:33;;;;;;;33.53;13.97;;;0.50;99.90;;;;;;4735987;30;20647;-75
2023/03/04 02:44:00;;;;;;;33.90;14.27;;;0.50;99.90;;;;;;4750637;30;20209;-75
2023/03/04 02:46:27;;;;;;;35.30;14.47;;;0.60;99.90;;;;;;4735808;30;20213;-75
2023/03/04 02:48:54;;;;;;;38.70;14.80;;;0.60;99.90;;;;;;4735790;30;20228;-74
2023/03/04 02:51:21;;;;;;;36.00;14.30;;;0.60;99.90;;;;;;4750556;30;20209;-75
2023/03/04 02:53:48;;;;;;;34.13;13.97;;;0.70;99.90;;;;;;4735539;30;20239;-75
2023/03/04 02:56:15;;;;;;;38.07;14.83;;;0.70;99.90;;;;;;4735379;30;20237;-75
2023/03/04 02:58:42;;;;;;;39.40;15.00;;;0.70;99.90;;;;;;4749740;30;20209;-75
2023/03/04 03:01:09;;;;;;;36.87;15.23;;;0.80;99.90;;;;;;4760985;30;20213;-74
2023/03/04 03:03:36;;;;;;;34.23;14.97;;;0.80;99.90;;;;;;4770121;30;20204;-77
2023/03/04 03:06:03;;;;;;;36.63;14.00;;;0.80;99.90;;;;;;4767772;30;20216;-75
2023/03/04 03:08:30;;;;;;;39.43;15.67;;;0.80;99.90;;;;;;4769931;30;20204;-76
2023/03/04 03:10:56;;;;;;;38.97;15.53;;;0.90;99.90;;;;;;4768789;30;20213;-75
2023/03/04 03:13:23;;;;;;;40.83;15.47;;;0.90;99.90;;;;;;4768713;30;20582;-78
2023/03/04 03:15:50;;;;;;;39.37;15.20;;;0.90;99.90;;;;;;4768496;30;20703;-76
2023/03/04 03:18:17;;;;;;;39.37;15.77;;;0.90;99.90;;;;;;4769879;30;20204;-76
2023/03/04 03:20:44;;;;;;;37.70;15.07;;;1.00;99.90;;;;;;4768941;30;20223;-74
2023/03/04 03:23:11;;;;;;;37.03;15.33;;;1.00;99.90;;;;;;4768488;30;20224;-79
2023/03/04 03:25:38;;;;;;;37.07;14.93;;;1.00;99.90;;;;;;4768497;30;20201;-73
2023/03/04 03:28:05;;;;;;;41.43;16.57;;;1.00;99.90;;;;;;4768532;30;20212;-74
2023/03/04 03:30:32;;;;;;;35.93;15.23;;;1.00;99.90;;;;;;4778435;30;20667;-75
2023/03/04 03:33:00;;;;;;;35.20;15.30;;;1.00;99.90;;;;;;4771646;30;20216;-75
2023/03/04 03:35:28;;;;;;;34.60;14.97;;;1.10;99.90;;;;;;4771298;30;20234;-73
2023/03/04 03:37:55;;;;;;;33.90;15.57;;;1.10;99.90;;;;;;4771356;30;20306;-73
2023/03/04 03:40:22;;;;;;;34.60;15.47;;;1.10;99.90;;;;;;4771944;30;20211;-74
2023/03/04 03:42:49;;;;;;;35.67;15.10;;;1.10;99.90;;;;;;4771300;30;20212;-74
2023/03/04 03:45:17;;;;;;;38.37;15.07;;;1.10;99.90;;;;;;4787307;30;20207;-72
2023/03/04 03:47:44;;;;;;;37.07;15.17;;;1.10;99.90;;;;;;4771193;30;20215;-73
2023/03/04 03:50:11;;;;;;;36.90;15.57;;;1.20;99.90;;;;;;4787454;30;20221;-73
2023/03/04 03:52:38;;;;;;;39.80;15.93;;;1.20;99.90;;;;;;4771369;30;20207;-78
2023/03/04 03:55:05;;;;;;;36.97;15.77;;;1.20;99.90;;;;;;4771236;30;20207;-74
2023/03/04 03:57:32;;;;;;;32.00;15.07;;;1.20;99.90;;;;;;4771465;30;20220;-76
2023/03/04 03:59:59;;;;;;;35.80;15.63;;;1.30;99.90;;;;;;4771097;30;20218;-74
2023/03/04 04:02:26;;;;;;;35.60;16.20;;;1.30;99.90;;;;;;4787459;30;20212;-74
2023/03/04 04:04:53;;;;;;;38.33;16.43;;;1.20;99.90;;;;;;4770920;30;20210;-75
2023/03/04 04:07:21;;;;;;;35.47;15.93;;;1.30;99.90;;;;;;4787496;30;20215;-78
2023/03/04 04:09:48;;;;;;;38.73;16.07;;;1.30;99.90;;;;;;4771378;30;20207;-77
2023/03/04 04:12:17;;;;;;;36.63;15.97;;;1.30;99.90;;;;;;4771239;30;20214;-77
2023/03/04 04:14:44;;;;;;;35.40;15.30;;;1.30;99.90;;;;;;4791890;30;20214;-89
2023/03/04 04:17:12;;;;;;;37.20;16.30;;;1.30;99.90;;;;;;4773720;30;20235;-76
2023/03/04 04:19:39;;;;;;;37.67;15.67;;;1.30;99.90;;;;;;4774736;30;20238;-77
2023/03/04 04:22:16;;;;;;;38.37;16.57;;;1.40;99.90;;;;;;4759961;30;20311;-81
2023/03/04 04:24:43;;;;;;;40.93;16.70;;;1.40;99.90;;;;;;4774650;30;20224;-77
2023/03/04 04:27:10;;;;;;;36.40;15.40;;;1.40;99.90;;;;;;4791048;30;20299;-77
2023/03/04 04:29:37;;;;;;;38.63;16.17;;;1.40;99.90;;;;;;4790461;30;20196;-77
2023/03/04 04:32:04;;;;;;;39.33;15.63;;;1.40;99.90;;;;;;4774503;30;20216;-76
2023/03/04 04:34:31;;;;;;;38.87;16.13;;;1.40;99.90;;;;;;4774461;30;20208;-78
2023/03/04 04:36:58;;;;;;;35.47;16.03;;;1.40;99.90;;;;;;4774421;30;20216;-78
2023/03/04 04:39:25;;;;;;;34.70;15.77;;;1.40;99.90;;;;;;4774492;30;20205;-79
2023/03/04 04:41:52;;;;;;;34.87;16.23;;;1.50;99.90;;;;;;4775643;30;20208;-76
2023/03/04 04:44:18;;;;;;;38.13;16.07;;;1.50;99.90;;;;;;4790548;30;20595;-76
2023/03/04 04:46:45;;;;;;;34.33;16.17;;;1.50;99.90;;;;;;4790451;30;20200;-82
2023/03/04 04:49:12;;;;;;;35.70;16.40;;;1.40;99.90;;;;;;4774278;30;20204;-76
2023/03/04 04:51:40;;;;;;;31.93;15.03;;;1.50;99.90;;;;;;4774195;30;20659;-77
2023/03/04 04:54:07;;;;;;;36.20;15.60;;;1.50;99.90;;;;;;4773999;30;20307;-77
2023/03/04 04:56:34;;;;;;;34.63;15.30;;;1.50;99.90;;;;;;4774200;30;20271;-77
2023/03/04 04:59:04;;;;;;;35.63;16.13;;;1.50;99.90;;;;;;4773826;30;20303;-76
2023/03/04 05:01:33;;;;;;;36.30;16.07;;;1.50;99.90;;;;;;4773999;30;20214;-77
2023/03/04 05:04:00;;;;;;;37.70;16.60;;;1.50;99.90;;;;;;4790065;30;20208;-77
2023/03/04 05:06:27;;;;;;;37.07;16.17;;;1.60;99.90;;;;;;4774065;30;20215;-76
2023/03/04 05:08:54;;;;;;;36.40;16.30;;;1.60;99.90;;;;;;4773922;30;20209;-76
2023/03/04 05:11:21;;;;;;;32.87;16.13;;;1.60;99.90;;;;;;4774102;30;20662;-76
2023/03/04 05:13:48;;;;;;;33.10;16.67;;;1.60;99.90;;;;;;4773996;30;20255;-79
2023/03/04 05:16:16;;;;;;;34.47;16.10;;;1.50;99.90;;;;;;4789861;30;20218;-76
2023/03/04 05:18:43;;;;;;;32.37;15.80;;;1.50;99.90;;;;;;4773602;30;20253;-78
2023/03/04 05:21:11;;;;;;;36.43;15.73;;;1.60;99.90;;;;;;4789905;30;20192;-77
2023/03/04 05:23:40;;;;;;;34.50;15.17;;;1.50;99.90;;;;;;4773568;30;20240;-75
2023/03/04 05:26:10;;;;;;;28.67;14.30;;;1.60;99.90;;;;;;4773642;30;20536;-77
2023/03/04 05:28:37;;;;;;;31.33;14.33;;;1.50;99.90;;;;;;4773212;30;20215;-74
2023/03/04 05:31:04;;;;;;;30.57;14.27;;;1.60;99.90;;;;;;4773263;30;20734;-76
2023/03/04 05:33:31;;;;;;;30.20;13.77;;;1.60;99.90;;;;;;4758419;30;20204;-75
2023/03/04 05:35:58;;;;;;;30.80;14.07;;;1.60;99.90;;;;;;4773149;30;20236;-75
2023/03/04 05:38:24;;;;;;;28.30;14.30;;;1.50;99.90;;;;;;4790278;30;20644;-77
2023/03/04 05:41:00;;;;;;;26.43;13.33;;;1.60;99.90;;;;;;4790276;30;20612;-74
2023/03/04 05:43:29;;;;;;;30.40;13.70;;;1.60;99.90;;;;;;4773766;30;20203;-74
2023/03/04 05:45:56;;;;;;;28.37;13.73;;;1.60;99.90;;;;;;4789699;30;20203;-75
2023/03/04 05:48:23;;;;;;;29.03;12.87;;;1.70;99.90;;;;;;4773154;30;20213;-74
2023/03/04 05:50:58;;;;;;;28.47;13.47;;;1.70;99.90;;;;;;4773232;30;20212;-75
2023/03/04 05:53:25;;;;;;;30.40;14.73;;;1.70;99.90;;;;;;4772724;30;20199;-73
2023/03/04 05:55:52;;;;;;;31.10;13.87;;;1.70;99.90;;;;;;4769938;30;20228;-75
2023/03/04 05:58:20;;;;;;;29.73;13.87;;;1.60;99.90;;;;;;4755495;30;20540;-75
2023/03/04 06:00:47;;;;;;;31.90;14.27;;;1.60;99.90;;;;;;4771429;30;20219;-75
2023/03/04 06:03:19;;;;;;;30.90;13.53;;;1.70;99.90;;;;;;4755163;30;20216;-77
2023/03/04 06:05:47;;;;;;;28.13;13.10;;;1.70;99.90;;;;;;4776797;30;20204;-75
2023/03/04 06:08:14;;;;;;;31.77;13.53;;;1.60;99.90;;;;;;4785704;30;20196;-73
2023/03/04 06:10:41;;;;;;;31.27;13.80;;;1.60;99.90;;;;;;4771978;30;20203;-73
2023/03/04 06:13:09;;;;;;;30.57;14.63;;;1.60;99.90;;;;;;4770971;30;20219;-77
2023/03/04 06:15:37;;;;;;;28.97;13.97;;;1.60;99.90;;;;;;4783692;30;20679;-76
2023/03/04 06:18:05;;;;;;;29.20;13.17;;;1.60;99.90;;;;;;4771392;30;20627;-75
2023/03/04 06:20:32;;;;;;;29.97;13.27;;;1.60;99.90;;;;;;4770331;30;20204;-73
2023/03/04 06:22:59;;;;;;;33.77;14.13;;;1.60;99.90;;;;;;4769171;30;20757;-75
2023/03/04 06:25:26;;;;;;;31.80;13.57;;;1.70;99.90;;;;;;4785751;30;20208;-72
2023/03/04 06:27:53;;;;;;;31.30;13.17;;;1.70;99.90;;;;;;4786484;30;20695;-73
2023/03/04 06:30:21;;;;;;;28.80;13.73;;;1.70;99.90;;;;;;4787392;30;20691;-74
2023/03/04 06:32:48;;;;;;;31.07;13.40;;;1.70;99.90;;;;;;4767584;30;20228;-72
2023/03/04 06:35:15;;;;;;;33.87;14.30;;;1.70;99.90;;;;;;4783902;30;20536;-72
2023/03/04 06:37:42;;;;;;;29.30;14.67;;;1.70;99.90;;;;;;4770325;30;20220;-75
2023/03/04 06:40:10;;;;;;;28.33;14.00;;;1.60;99.90;;;;;;4771003;30;20211;-72
2023/03/04 06:42:39;;;;;;;27.90;13.10;;;1.70;99.90;;;;;;4770574;30;20241;-73
2023/03/04 06:45:07;;;;;;;30.17;14.10;;;1.70;99.90;;;;;;4786798;30;20196;-72
2023/03/04 06:47:34;;;;;;;28.03;13.17;;;1.70;99.90;;;;;;4772217;30;20216;-73
2023/03/04 06:50:02;;;;;;;27.83;13.27;;;1.70;99.90;;;;;;4772175;30;20316;-73
2023/03/04 06:52:30;;;;;;;28.30;13.33;;;1.70;99.90;;;;;;4772089;30;20236;-74
2023/03/04 06:54:57;;;;;;;29.80;14.00;;;1.70;99.90;;;;;;4766113;30;20648;-75
2023/03/04 06:57:24;;;;;;;30.30;14.27;;;1.70;99.90;;;;;;4772005;30;20227;-75
2023/03/04 06:59:50;;;;;;;27.67;13.23;;;1.70;99.90;;;;;;4757166;30;20202;-73
2023/03/04 07:02:17;;;;;;;26.13;13.20;;;1.80;99.90;;;;;;4771807;30;20311;-73
2023/03/04 07:04:44;;;;;;;27.33;13.20;;;1.70;99.90;;;;;;4770569;30;20209;-73
2023/03/04 07:07:12;;;;;;;29.23;13.10;;;1.70;99.90;;;;;;4771175;30;20200;-72
2023/03/04 07:09:39;;;;;;;28.87;13.63;;;1.70;99.90;;;;;;4785768;30;20536;-72
2023/03/04 07:12:06;;;;;;;31.37;13.57;;;1.80;99.90;;;;;;4784405;30;20228;-71
2023/03/04 07:14:33;;;;;;;26.63;13.33;;;1.80;99.90;;;;;;4770502;30;20586;-73
2023/03/04 07:17:00;;;;;;;27.67;12.17;;;1.80;99.90;;;;;;4771735;30;20224;-81
2023/03/04 07:19:27;;;;;;;26.33;12.50;;;1.80;99.90;;;;;;4769627;30;20204;-79
2023/03/04 07:21:54;;;;;;;26.13;13.00;;;1.90;99.90;;;;;;4788193;30;20197;-72
2023/03/04 07:24:21;;;;;;;32.60;13.80;;;1.90;99.90;;;;;;4784339;30;20236;-73
2023/03/04 07:26:47;;;;;;;27.90;13.17;;;1.80;99.90;;;;;;4770415;29;20272;-71
2023/03/04 07:29:14;;;;;;;26.60;13.07;;;1.80;99.90;;;;;;4769259;30;20209;-74
2023/03/04 07:31:41;;;;;;;26.23;13.03;;;1.90;99.90;;;;;;4770388;30;20243;-74
2023/03/04 07:34:12;;;;;;;28.17;12.97;;;1.90;99.90;;;;;;4766695;30;20220;-70
2023/03/04 07:36:40;;;;;;;27.97;12.27;;;1.80;99.90;;;;;;4770293;30;20236;-71
2023/03/04 07:39:08;;;;;;;24.93;12.87;;;1.90;99.90;;;;;;4771435;30;20212;-75
2023/03/04 07:41:36;;;;;;;26.13;12.30;;;1.90;99.90;;;;;;4770539;30;20193;-73
2023/03/04 07:44:04;;;;;;;26.43;12.40;;;1.80;99.90;;;;;;4753766;30;20208;-71
2023/03/04 07:46:31;;;;;;;25.33;12.20;;;1.90;99.90;;;;;;4770490;30;20223;-78
2023/03/04 07:48:58;;;;;;;24.43;11.47;;;1.90;99.90;;;;;;4768753;30;20219;-75
2023/03/04 07:51:29;;;;;;;25.27;12.50;;;2.00;99.90;;;;;;4767234;30;20303;-82
2023/03/04 07:53:58;;;;;;;24.87;12.07;;;2.00;99.90;;;;;;4788474;30;20230;-70
2023/03/04 07:56:28;;;;;;;26.67;11.80;;;2.00;99.90;;;;;;4786287;30;20220;-68
2023/03/04 07:58:55;;;;;;;24.30;10.80;;;1.90;99.90;;;;;;4769194;30;20208;-70
2023/03/04 08:01:28;;;;;;;23.80;11.87;;;1.90;99.90;;;;;;4768202;30;20651;-68
2023/03/04 08:03:56;;;;;;;23.67;11.27;;;2.00;99.90;;;;;;4785836;30;20207;-71
2023/03/04 08:06:24;;;;;;;27.07;12.03;;;2.00;99.90;;;;;;4771008;30;20223;-72
2023/03/04 08:08:57;;;;;;;23.97;11.57;;;2.00;99.90;;;;;;4771095;30;20208;-74
2023/03/04 08:11:25;;;;;;;24.87;11.93;;;2.00;99.90;;;;;;4770519;30;20204;-80
2023/03/04 08:13:53;;;;;;;24.87;11.40;;;2.00;99.90;;;;;;4774839;30;20211;-76
2023/03/04 08:16:22;;;;;;;27.83;12.07;;;2.10;99.90;;;;;;4765727;30;20228;-77
2023/03/04 08:18:54;;;;;;;25.03;11.20;;;2.00;99.90;;;;;;4787332;30;20215;-79
2023/03/04 08:21:23;;;;;;;24.60;11.70;;;2.00;99.90;;;;;;4787560;30;20193;-74
2023/03/04 08:23:51;;;;;;;26.67;11.50;;;2.10;99.90;;;;;;4771045;30;20620;-73
2023/03/04 08:26:32;;;;;;;25.57;11.47;;;2.10;99.90;;;;;;4770579;30;20206;-76
2023/03/04 08:29:01;;;;;;;22.33;10.83;;;2.10;99.90;;;;;;4753822;30;20302;-80
2023/03/04 08:31:28;;;;;;;22.90;9.70;;;2.10;99.90;;;;;;4751040;30;20254;-80
2023/03/04 08:33:55;;;;;;;24.07;11.00;;;2.10;99.90;;;;;;4754495;30;20241;-81
2023/03/04 08:36:22;;;;;;;22.83;10.80;;;2.20;99.90;;;;;;4767809;30;20316;-82
2023/03/04 08:38:49;;;;;;;23.50;10.37;;;2.10;99.90;;;;;;4762411;30;20204;-77
2023/03/04 08:41:16;;;;;;;21.47;10.30;;;2.20;99.90;;;;;;4765566;30;20711;-74
2023/03/04 08:43:43;;;;;;;26.50;10.63;;;2.10;99.90;;;;;;4767290;30;20588;-76
2023/03/04 08:46:10;;;;;;;19.23;10.23;;;2.20;99.90;;;;;;4767233;30;20688;-73
2023/03/04 08:48:37;;;;;;;21.10;10.30;;;2.20;99.90;;;;;;4767739;30;20212;-78
2023/03/04 08:51:13;;;;;;;22.47;10.23;;;2.20;99.90;;;;;;4767478;30;20304;-77
2023/03/04 08:53:40;;;;;;;25.73;10.43;;;2.20;99.90;;;;;;4768925;30;20194;-77
2023/03/04 08:56:08;;;;;;;21.97;11.00;;;2.10;99.90;;;;;;4760804;30;20213;-80
2023/03/04 08:58:35;;;;;;;21.40;10.70;;;2.20;99.90;;;;;;4764209;30;20205;-80
2023/03/04 09:01:03;;;;;;;21.00;9.73;;;2.10;99.90;;;;;;4763530;30;20692;-79
2023/03/04 09:03:30;;;;;;;22.27;10.93;;;2.20;99.90;;;;;;4757391;30;20236;-74
2023/03/04 09:05:57;;;;;;;23.53;10.93;;;2.20;99.90;;;;;;4754518;30;20293;-76
2023/03/04 09:08:24;;;;;;;25.57;10.80;;;2.10;99.90;;;;;;4753675;30;20245;-77
2023/03/04 09:10:52;;;;;;;21.63;10.53;;;2.10;99.90;;;;;;4753454;30;20654;-74
2023/03/04 09:13:22;;;;;;;25.80;10.53;;;2.20;99.90;;;;;;4754077;30;20219;-73
2023/03/04 09:15:52;;;;;;;21.37;10.60;;;2.20;99.90;;;;;;4767486;30;20687;-81
2023/03/04 09:18:21;;;;;;;21.47;9.83;;;2.20;99.90;;;;;;4770597;30;20260;-80
2023/03/04 09:20:48;;;;;;;23.47;10.67;;;2.30;99.90;;;;;;4770466;30;21142;-77
2023/03/04 09:23:16;;;;;;;24.00;11.00;;;2.30;99.90;;;;;;4770981;30;20316;-77
2023/03/04 09:25:46;;;;;;;24.43;10.10;;;2.30;99.90;;;;;;4767429;30;20216;-82
2023/03/04 09:28:15;;;;;;;21.13;10.10;;;2.30;99.90;;;;;;4770422;30;20209;-72
2023/03/04 09:30:45;;;;;;;20.80;9.73;;;2.40;99.90;;;;;;4755452;30;20332;-85
2023/03/04 09:33:12;;;;;;;20.17;10.63;;;2.40;99.90;;;;;;4771930;30;20626;-77
2023/03/04 09:35:39;;;;;;;18.27;9.13;;;2.40;99.90;;;;;;4766633;30;20628;-75
2023/03/04 09:38:06;;;;;;;24.13;10.30;;;2.40;99.90;;;;;;4769125;30;20297;-76
2023/03/04 09:40:42;;;;;;;22.33;9.43;;;2.40;99.90;;;;;;4768927;30;20226;-78
2023/03/04 09:43:28;;;;;;;24.07;10.47;;;2.50;99.90;;;;;;4756402;30;20668;-80
2023/03/04 09:45:59;;;;;;;22.77;10.27;;;2.60;99.90;;;;;;4769763;30;20656;-78
2023/03/04 09:48:39;;;;;;;21.67;9.93;;;2.50;99.90;;;;;;4770631;30;20197;-79
2023/03/04 09:51:31;;;;;;;24.40;10.60;;;2.50;99.90;;;;;;4770451;30;20301;-79
2023/03/04 09:54:14;;;;;;;20.13;9.83;;;2.60;99.90;;;;;;4771083;30;20209;-79
2023/03/04 09:56:41;;;;;;;25.20;10.30;;;2.60;99.90;;;;;;4767757;30;20207;-73
2023/03/04 09:59:26;;;;;;;23.77;10.30;;;2.50;99.90;;;;;;4751893;30;20304;-77
2023/03/04 10:01:58;;;;;;;22.20;10.00;;;2.50;99.90;;;;;;4756008;30;20235;-72
2023/03/04 10:04:45;;;;;;;26.47;10.57;;;2.60;99.90;;;;;;4769258;30;20227;-72
2023/03/04 10:07:28;;;;;;;25.80;9.73;;;2.50;99.90;;;;;;4755065;30;20213;-78
2023/03/04 10:10:01;;;;;;;21.50;10.27;;;2.50;99.90;;;;;;4765650;30;20223;-75
2023/03/04 10:12:34;;;;;;;26.33;10.17;;;2.50;99.90;;;;;;4751302;30;20214;-75
2023/03/04 10:15:05;;;;;;;22.27;10.67;;;2.60;99.90;;;;;;4750799;30;20273;-75
2023/03/04 10:17:50;;;;;;;26.67;9.83;;;2.60;99.90;;;;;;4765051;30;20956;-76
2023/03/04 10:20:22;;;;;;;22.07;9.87;;;2.60;99.90;;;;;;4769162;30;20208;-77
2023/03/04 10:22:52;;;;;;;21.73;9.83;;;2.70;99.90;;;;;;4765524;30;20205;-82
2023/03/04 10:25:28;;;;;;;27.48;11.32;;;2.70;99.90;;;;;;4767705;30;20461;-78
2023/03/04 10:28:03;;;;;;;23.40;9.77;;;2.90;99.90;;;;;;4767370;30;20695;-73
2023/03/04 10:30:33;;;;;;;22.67;10.20;;;2.80;99.90;;;;;;4779791;30;20241;-81
2023/03/04 10:33:01;;;;;;;20.80;9.57;;;2.90;99.90;;;;;;4783168;30;20213;-80
2023/03/04 10:35:36;;;;;;;20.90;9.10;;;2.90;99.90;;;;;;4769313;30;20220;-83
2023/03/04 10:38:03;;;;;;;22.27;8.93;;;2.90;99.90;;;;;;4766717;30;20223;-83
2023/03/04 10:40:37;;;;;;;19.87;9.13;;;2.90;99.90;;;;;;4768976;30;20209;-82
2023/03/04 10:43:06;;;;;;;20.13;9.70;;;3.00;99.90;;;;;;4765564;30;20281;-85
2023/03/04 10:45:38;;;;;;;20.43;9.30;;;2.90;99.90;;;;;;4770749;30;20280;-83
2023/03/04 10:48:15;;;;;;;24.60;9.27;;;2.90;99.90;;;;;;4770533;30;20202;-80
2023/03/04 10:50:42;;;;;;;22.80;9.27;;;2.90;99.90;;;;;;4769620;30;20209;-80
2023/03/04 10:53:35;;;;;;;21.50;9.43;;;3.00;99.90;;;;;;4770672;30;20216;-85
2023/03/04 10:56:02;;;;;;;25.90;9.13;;;3.10;99.90;;;;;;4774101;30;20201;-89
2023/03/04 10:58:29;;;;;;;22.17;9.07;;;3.10;99.90;;;;;;4770880;30;20700;-84
2023/03/04 11:01:02;;;;;;;18.27;8.73;;;3.00;99.90;;;;;;4771531;30;20198;-83
2023/03/04 11:03:35;;;;;;;21.07;9.17;;;3.10;99.90;;;;;;4770821;30;20668;-83
2023/03/04 11:06:16;;;;;;;20.20;9.57;;;3.10;99.90;;;;;;4769912;30;20220;-83
2023/03/04 11:08:43;;;;;;;23.33;9.43;;;3.10;99.90;;;;;;4770404;30;20211;-84
2023/03/04 11:11:44;;;;;;;25.57;9.47;;;3.00;99.90;;;;;;4770712;30;20201;-85
2023/03/04 11:14:18;;;;;;;21.93;9.80;;;3.00;99.90;;;;;;4666823;30;20778;-78
2023/03/04 11:16:54;;;;;;;18.80;8.65;;;3.00;99.90;;;;;;4667760;30;20242;-78
2023/03/04 11:19:36;;;;;;;23.53;9.67;;;3.00;99.90;;;;;;4681136;30;20653;-79
2023/03/04 11:22:04;;;;;;;22.17;8.80;;;3.00;99.90;;;;;;4681529;30;20383;-79
2023/03/04 11:24:36;;;;;;;24.77;8.97;;;3.00;99.90;;;;;;4681269;30;20232;-80
2023/03/04 11:27:10;;;;;;;18.87;8.43;;;3.00;99.90;;;;;;4665963;30;20312;-82
2023/03/04 11:29:42;;;;;;;23.77;9.20;;;3.10;99.90;;;;;;4680319;30;20244;-81
2023/03/04 11:32:40;;;;;;;20.77;8.80;;;3.10;99.90;;;;;;4680369;30;20242;-77
2023/03/04 11:35:48;;;;;;;18.90;9.10;;;3.20;99.90;;;;;;4679910;30;20668;-82
2023/03/04 11:38:15;;;;;;;17.03;8.60;;;3.30;99.90;;;;;;4596024;31;20306;-82
2023/03/04 11:40:46;;;;;;;16.70;7.90;;;3.20;99.90;;;;;;4588490;31;20216;-78
2023/03/04 11:43:38;;;;;;;19.00;8.40;;;3.40;99.90;;;;;;4582619;31;20223;-79
2023/03/04 11:46:24;;;;;;;16.10;8.47;;;3.40;99.90;;;;;;4598788;31;20252;-72
2023/03/04 11:48:55;;;;;;;18.50;8.17;;;3.40;99.90;;;;;;4586307;30;20219;-75
2023/03/04 11:51:51;;;;;;;20.47;8.80;;;3.40;99.90;;;;;;4666524;30;20228;-75
2023/03/04 11:54:45;;;;;;;25.23;8.87;;;3.40;99.90;;;;;;4643419;30;20308;-73
2023/03/04 11:57:36;;;;;;;17.43;8.47;;;3.30;99.90;;;;;;4654144;30;20333;-83
2023/03/04 12:00:15;;;;;;;22.27;9.00;;;3.30;99.90;;;;;;4658344;30;20244;-77
2023/03/04 12:03:01;;;;;;;26.30;9.17;;;3.30;99.90;;;;;;4665572;30;20301;-81
2023/03/04 12:05:47;;;;;;;18.67;8.80;;;3.40;99.90;;;;;;4644464;30;20222;-78
2023/03/04 12:08:31;;;;;;;20.30;9.10;;;3.40;99.90;;;;;;4650326;30;20827;-76
2023/03/04 12:11:01;;;;;;;18.57;9.00;;;3.40;99.90;;;;;;4675378;30;20208;-77
2023/03/04 12:13:55;;;;;;;22.37;9.37;;;3.40;99.90;;;;;;4643544;30;20622;-76
2023/03/04 12:17:08;;;;;;;23.20;9.50;;;3.30;99.90;;;;;;4749761;30;20228;-75
2023/03/04 12:20:07;;;;;;;25.17;10.23;;;3.10;99.90;;;;;;4676876;30;20281;-74
2023/03/04 12:22:43;;;;;;;28.33;10.23;;;3.10;99.90;;;;;;4678084;30;20251;-70
2023/03/04 12:25:29;;;;;;;21.53;9.87;;;3.00;99.90;;;;;;4665429;30;20224;-71
2023/03/04 12:28:20;;;;;;;21.20;9.40;;;3.00;99.90;;;;;;4668424;30;20213;-85
2023/03/04 12:30:59;;;;;;;29.13;10.40;;;3.00;99.90;;;;;;4660825;30;20290;-82
2023/03/04 12:33:45;;;;;;;22.97;10.30;;;3.00;99.90;;;;;;4679569;30;20209;-76
2023/03/04 12:36:36;;;;;;;24.20;11.03;;;3.10;99.90;;;;;;4679891;30;20212;-74
2023/03/04 12:39:29;;;;;;;25.63;11.03;;;2.90;99.90;;;;;;4687624;30;20232;-84
2023/03/04 12:42:29;;;;;;;26.93;12.10;;;3.00;99.90;;;;;;4675460;30;20559;-91
2023/03/04 12:45:14;;;;;;;25.70;11.53;;;2.90;99.90;;;;;;4692655;30;20253;-72
2023/03/04 12:48:10;;;;;;;29.63;12.73;;;2.70;99.90;;;;;;4687283;30;20321;-88
2023/03/04 12:50:47;;;;;;;30.20;12.53;;;2.80;99.90;;;;;;4700877;30;20327;-79
2023/03/04 12:53:29;;;;;;;28.27;12.40;;;2.80;99.90;;;;;;4701753;30;20319;-76
2023/03/04 12:55:58;;;;;;;27.17;12.33;;;2.90;99.90;;;;;;4735317;30;20299;-82